sensor_id;sensor_type;location;lat;lon;timestamp;temperature;humidity
24091;DHT22;12272;52.426;17.100;2022-11-02T00:03:11;10.90;99.90
24091;DHT22;12272;52.426;17.100;2022-11-02T00:08:13;10.90;99.90
24091;DHT22;12272;52.426;17.100;2022-11-02T00:13:16;10.50;99.90
24091;DHT22;12272;52.426;17.100;2022-11-02T00:18:18;10.50;99.90
24091;DHT22;12272;52.426;17.100;2022-11-02T00:23:21;10.50;99.90
24091;DHT22;12272;52.426;17.100;2022-11-02T00:28:24;10.40;99.90
24091;DHT22;12272;52.426;17.100;2022-11-02T00:33:26;10.50;99.90
24091;DHT22;12272;52.426;17.100;2022-11-02T00:38:29;10.60;99.90
24091;DHT22;12272;52.426;17.100;2022-11-02T00:43:33;10.60;99.90
24091;DHT22;12272;52.426;17.100;2022-11-02T00:48:35;10.90;99.90
24091;DHT22;12272;52.426;17.100;2022-11-02T00:53:38;10.90;99.90
24091;DHT22;12272;52.426;17.100;2022-11-02T00:58:41;10.90;99.90
24091;DHT22;12272;52.426;17.100;2022-11-02T01:03:45;10.80;99.90
24091;DHT22;12272;52.426;17.100;2022-11-02T01:08:48;10.80;99.90
24091;DHT22;12272;52.426;17.100;2022-11-02T01:13:51;10.90;99.90
24091;DHT22;12272;52.426;17.100;2022-11-02T01:18:55;10.80;99.90
24091;DHT22;12272;52.426;17.100;2022-11-02T01:23:58;10.70;99.90
24091;DHT22;12272;52.426;17.100;2022-11-02T01:29:01;10.50;99.90
24091;DHT22;12272;52.426;17.100;2022-11-02T01:34:03;10.60;99.90
24091;DHT22;12272;52.426;17.100;2022-11-02T01:39:06;10.60;99.90
24091;DHT22;12272;52.426;17.100;2022-11-02T01:44:41;10.60;99.90
24091;DHT22;12272;52.426;17.100;2022-11-02T01:49:47;10.60;99.90
24091;DHT22;12272;52.426;17.100;2022-11-02T01:54:58;10.50;99.90
24091;DHT22;12272;52.426;17.100;2022-11-02T02:00:10;10.40;99.90
24091;DHT22;12272;52.426;17.100;2022-11-02T02:05:17;10.40;99.90
24091;DHT22;12272;52.426;17.100;2022-11-02T02:10:20;10.10;99.90
24091;DHT22;12272;52.426;17.100;2022-11-02T02:15:26;9.80;99.90
24091;DHT22;12272;52.426;17.100;2022-11-02T02:20:58;9.70;99.90
24091;DHT22;12272;52.426;17.100;2022-11-02T02:26:41;9.50;99.90
24091;DHT22;12272;52.426;17.100;2022-11-02T02:37:38;9.50;99.90
24091;DHT22;12272;52.426;17.100;2022-11-02T02:42:58;9.40;99.90
24091;DHT22;12272;52.426;17.100;2022-11-02T02:48:13;9.40;99.90
24091;DHT22;12272;52.426;17.100;2022-11-02T02:53:21;9.00;99.90
24091;DHT22;12272;52.426;17.100;2022-11-02T02:58:29;8.80;99.90
24091;DHT22;12272;52.426;17.100;2022-11-02T03:03:33;8.90;99.90
24091;DHT22;12272;52.426;17.100;2022-11-02T03:08:38;8.80;99.90
24091;DHT22;12272;52.426;17.100;2022-11-02T03:19:22;8.60;99.90
24091;DHT22;12272;52.426;17.100;2022-11-02T03:24:32;8.60;99.90
24091;DHT22;12272;52.426;17.100;2022-11-02T03:29:47;9.10;99.90
24091;DHT22;12272;52.426;17.100;2022-11-02T03:34:57;9.30;99.90
24091;DHT22;12272;52.426;17.100;2022-11-02T03:40:11;9.60;99.90
24091;DHT22;12272;52.426;17.100;2022-11-02T03:45:22;9.80;99.90
24091;DHT22;12272;52.426;17.100;2022-11-02T03:50:27;9.90;99.90
24091;DHT22;12272;52.426;17.100;2022-11-02T03:55:34;10.00;99.90
24091;DHT22;12272;52.426;17.100;2022-11-02T04:00:46;10.00;99.90
24091;DHT22;12272;52.426;17.100;2022-11-02T04:05:50;10.10;99.90
24091;DHT22;12272;52.426;17.100;2022-11-02T04:11:01;10.10;99.90
24091;DHT22;12272;52.426;17.100;2022-11-02T04:16:25;10.20;99.90
24091;DHT22;12272;52.426;17.100;2022-11-02T04:21:31;10.20;99.90
24091;DHT22;12272;52.426;17.100;2022-11-02T04:26:35;10.20;99.90
24091;DHT22;12272;52.426;17.100;2022-11-02T04:31:38;10.10;99.90
24091;DHT22;12272;52.426;17.100;2022-11-02T04:36:42;10.20;99.90
24091;DHT22;12272;52.426;17.100;2022-11-02T04:41:46;10.30;99.90
24091;DHT22;12272;52.426;17.100;2022-11-02T04:46:54;10.20;99.90
24091;DHT22;12272;52.426;17.100;2022-11-02T04:52:01;10.20;99.90
24091;DHT22;12272;52.426;17.100;2022-11-02T04:57:05;10.20;99.90
24091;DHT22;12272;52.426;17.100;2022-11-02T05:02:08;10.20;99.90
24091;DHT22;12272;52.426;17.100;2022-11-02T05:07:12;10.10;99.90
24091;DHT22;12272;52.426;17.100;2022-11-02T05:12:15;10.10;99.90
24091;DHT22;12272;52.426;17.100;2022-11-02T05:17:17;10.00;99.90
24091;DHT22;12272;52.426;17.100;2022-11-02T05:22:20;10.10;99.90
24091;DHT22;12272;52.426;17.100;2022-11-02T05:27:23;10.70;99.90
24091;DHT22;12272;52.426;17.100;2022-11-02T05:32:27;10.20;99.90
24091;DHT22;12272;52.426;17.100;2022-11-02T05:37:29;12.60;99.90
24091;DHT22;12272;52.426;17.100;2022-11-02T05:42:33;10.40;99.90
24091;DHT22;12272;52.426;17.100;2022-11-02T05:47:36;10.30;99.90
24091;DHT22;12272;52.426;17.100;2022-11-02T05:52:39;10.50;99.90
24091;DHT22;12272;52.426;17.100;2022-11-02T05:57:42;11.30;99.90
24091;DHT22;12272;52.426;17.100;2022-11-02T06:02:44;10.90;99.90
24091;DHT22;12272;52.426;17.100;2022-11-02T06:07:47;10.60;99.90
24091;DHT22;12272;52.426;17.100;2022-11-02T06:12:56;10.70;99.90
24091;DHT22;12272;52.426;17.100;2022-11-02T06:17:59;11.50;99.90
24091;DHT22;12272;52.426;17.100;2022-11-02T06:23:02;11.30;99.90
24091;DHT22;12272;52.426;17.100;2022-11-02T06:28:05;11.30;99.90
24091;DHT22;12272;52.426;17.100;2022-11-02T06:33:07;11.40;99.90
24091;DHT22;12272;52.426;17.100;2022-11-02T06:38:11;11.10;99.90
24091;DHT22;12272;52.426;17.100;2022-11-02T06:43:13;10.00;99.90
24091;DHT22;12272;52.426;17.100;2022-11-02T06:48:18;10.00;99.90
24091;DHT22;12272;52.426;17.100;2022-11-02T06:53:21;9.60;99.90
24091;DHT22;12272;52.426;17.100;2022-11-02T06:58:24;9.50;99.90
24091;DHT22;12272;52.426;17.100;2022-11-02T07:03:28;9.40;99.90
24091;DHT22;12272;52.426;17.100;2022-11-02T07:08:31;9.50;99.90
24091;DHT22;12272;52.426;17.100;2022-11-02T07:13:33;9.70;99.90
24091;DHT22;12272;52.426;17.100;2022-11-02T07:18:37;9.60;99.90
24091;DHT22;12272;52.426;17.100;2022-11-02T07:23:39;10.00;99.90
24091;DHT22;12272;52.426;17.100;2022-11-02T07:28:44;9.70;99.90
24091;DHT22;12272;52.426;17.100;2022-11-02T07:33:48;10.10;99.90
24091;DHT22;12272;52.426;17.100;2022-11-02T07:38:50;10.10;99.90
24091;DHT22;12272;52.426;17.100;2022-11-02T07:44:32;13.10;99.90
24091;DHT22;12272;52.426;17.100;2022-11-02T07:49:34;11.50;99.90
24091;DHT22;12272;52.426;17.100;2022-11-02T07:54:37;11.60;99.90
24091;DHT22;12272;52.426;17.100;2022-11-02T07:59:45;11.10;99.90
24091;DHT22;12272;52.426;17.100;2022-11-02T08:04:48;13.40;99.90
24091;DHT22;12272;52.426;17.100;2022-11-02T08:09:50;14.90;99.90
24091;DHT22;12272;52.426;17.100;2022-11-02T08:14:53;14.40;99.90
24091;DHT22;12272;52.426;17.100;2022-11-02T08:19:55;14.30;99.90
24091;DHT22;12272;52.426;17.100;2022-11-02T08:24:59;14.50;99.90
24091;DHT22;12272;52.426;17.100;2022-11-02T08:30:02;14.30;99.90
24091;DHT22;12272;52.426;17.100;2022-11-02T08:35:05;16.30;99.90
24091;DHT22;12272;52.426;17.100;2022-11-02T08:40:08;15.80;99.90
24091;DHT22;12272;52.426;17.100;2022-11-02T08:45:11;14.30;99.90
24091;DHT22;12272;52.426;17.100;2022-11-02T08:50:14;15.00;99.90
24091;DHT22;12272;52.426;17.100;2022-11-02T08:55:16;16.00;99.90
24091;DHT22;12272;52.426;17.100;2022-11-02T09:00:21;15.80;99.90
24091;DHT22;12272;52.426;17.100;2022-11-02T09:05:24;17.00;99.90
24091;DHT22;12272;52.426;17.100;2022-11-02T09:10:28;16.70;99.90
24091;DHT22;12272;52.426;17.100;2022-11-02T09:20:37;16.70;99.90
24091;DHT22;12272;52.426;17.100;2022-11-02T09:25:39;15.60;99.90
24091;DHT22;12272;52.426;17.100;2022-11-02T09:30:42;17.50;99.90
24091;DHT22;12272;52.426;17.100;2022-11-02T09:35:46;17.70;99.90
24091;DHT22;12272;52.426;17.100;2022-11-02T09:41:10;17.20;99.90
24091;DHT22;12272;52.426;17.100;2022-11-02T09:46:53;18.00;99.90
24091;DHT22;12272;52.426;17.100;2022-11-02T09:51:48;18.30;99.90
24091;DHT22;12272;52.426;17.100;2022-11-02T09:56:55;16.50;99.90
24091;DHT22;12272;52.426;17.100;2022-11-02T10:18:25;16.50;99.90
24091;DHT22;12272;52.426;17.100;2022-11-02T10:23:50;16.40;99.90
24091;DHT22;12272;52.426;17.100;2022-11-02T10:29:02;17.40;99.90
24091;DHT22;12272;52.426;17.100;2022-11-02T10:39:41;17.30;99.90
24091;DHT22;12272;52.426;17.100;2022-11-02T10:50:11;17.10;99.90
24091;DHT22;12272;52.426;17.100;2022-11-02T11:00:21;18.20;99.90
24091;DHT22;12272;52.426;17.100;2022-11-02T11:05:24;17.50;99.90
24091;DHT22;12272;52.426;17.100;2022-11-02T11:10:28;17.40;99.90
24091;DHT22;12272;52.426;17.100;2022-11-02T11:15:33;17.90;99.90
24091;DHT22;12272;52.426;17.100;2022-11-02T11:20:53;17.10;99.90
24091;DHT22;12272;52.426;17.100;2022-11-02T11:26:05;17.40;99.90
24091;DHT22;12272;52.426;17.100;2022-11-02T11:31:15;18.00;99.90
24091;DHT22;12272;52.426;17.100;2022-11-02T11:36:25;18.60;99.90
24091;DHT22;12272;52.426;17.100;2022-11-02T11:41:31;17.40;99.90
24091;DHT22;12272;52.426;17.100;2022-11-02T11:46:41;17.90;99.90
24091;DHT22;12272;52.426;17.100;2022-11-02T11:51:49;18.40;99.90
24091;DHT22;12272;52.426;17.100;2022-11-02T11:56:58;18.40;99.90
24091;DHT22;12272;52.426;17.100;2022-11-02T12:02:01;18.10;99.90
24091;DHT22;12272;52.426;17.100;2022-11-02T12:23:26;18.80;99.90
24091;DHT22;12272;52.426;17.100;2022-11-02T12:39:08;18.50;99.90
24091;DHT22;12272;52.426;17.100;2022-11-02T12:49:45;18.70;99.90
24091;DHT22;12272;52.426;17.100;2022-11-02T12:54:52;18.90;99.90
24091;DHT22;12272;52.426;17.100;2022-11-02T13:00:03;18.70;99.90
24091;DHT22;12272;52.426;17.100;2022-11-02T13:05:19;18.10;99.90
24091;DHT22;12272;52.426;17.100;2022-11-02T13:10:29;18.70;99.90
24091;DHT22;12272;52.426;17.100;2022-11-02T13:15:33;18.70;99.90
24091;DHT22;12272;52.426;17.100;2022-11-02T13:20:56;18.20;99.90
24091;DHT22;12272;52.426;17.100;2022-11-02T13:26:06;18.00;99.90
24091;DHT22;12272;52.426;17.100;2022-11-02T13:31:34;18.30;99.90
24091;DHT22;12272;52.426;17.100;2022-11-02T13:36:38;17.00;99.90
24091;DHT22;12272;52.426;17.100;2022-11-02T13:42:01;16.40;99.90
24091;DHT22;12272;52.426;17.100;2022-11-02T13:57:43;18.10;99.90
24091;DHT22;12272;52.426;17.100;2022-11-02T14:02:46;17.70;99.90
24091;DHT22;12272;52.426;17.100;2022-11-02T14:07:49;17.90;99.90
24091;DHT22;12272;52.426;17.100;2022-11-02T14:12:52;16.00;99.90
24091;DHT22;12272;52.426;17.100;2022-11-02T14:17:55;16.60;99.90
24091;DHT22;12272;52.426;17.100;2022-11-02T14:49:47;16.60;99.90
24091;DHT22;12272;52.426;17.100;2022-11-02T14:54:52;15.60;99.90
24091;DHT22;12272;52.426;17.100;2022-11-02T14:59:58;15.30;99.90
24091;DHT22;12272;52.426;17.100;2022-11-02T15:05:05;15.50;99.90
24091;DHT22;12272;52.426;17.100;2022-11-02T15:15:34;16.10;99.90
24091;DHT22;12272;52.426;17.100;2022-11-02T15:20:37;15.00;99.90
24091;DHT22;12272;52.426;17.100;2022-11-02T15:25:50;14.30;99.90
24091;DHT22;12272;52.426;17.100;2022-11-02T15:30:58;14.10;99.90
24091;DHT22;12272;52.426;17.100;2022-11-02T15:36:01;14.00;99.90
24091;DHT22;12272;52.426;17.100;2022-11-02T15:47:33;12.90;99.90
24091;DHT22;12272;52.426;17.100;2022-11-02T15:52:45;12.60;99.90
24091;DHT22;12272;52.426;17.100;2022-11-02T16:03:22;11.50;99.90
24091;DHT22;12272;52.426;17.100;2022-11-02T16:08:32;11.40;99.90
24091;DHT22;12272;52.426;17.100;2022-11-02T16:13:35;11.60;99.90
24091;DHT22;12272;52.426;17.100;2022-11-02T16:18:57;11.80;99.90
24091;DHT22;12272;52.426;17.100;2022-11-02T16:24:00;11.80;99.90
24091;DHT22;12272;52.426;17.100;2022-11-02T16:29:05;11.80;99.90
24091;DHT22;12272;52.426;17.100;2022-11-02T16:34:30;11.40;99.90
24091;DHT22;12272;52.426;17.100;2022-11-02T16:39:34;11.20;99.90
24091;DHT22;12272;52.426;17.100;2022-11-02T16:44:38;11.10;99.90
24091;DHT22;12272;52.426;17.100;2022-11-02T16:54:53;11.20;99.90
24091;DHT22;12272;52.426;17.100;2022-11-02T17:05:01;11.20;99.90
24091;DHT22;12272;52.426;17.100;2022-11-02T17:10:22;11.40;99.90
24091;DHT22;12272;52.426;17.100;2022-11-02T17:15:30;11.50;99.90
24091;DHT22;12272;52.426;17.100;2022-11-02T17:20:37;12.30;99.90
24091;DHT22;12272;52.426;17.100;2022-11-02T17:25:40;12.30;99.90
24091;DHT22;12272;52.426;17.100;2022-11-02T17:30:43;11.80;99.90
24091;DHT22;12272;52.426;17.100;2022-11-02T17:35:48;12.70;99.90
24091;DHT22;12272;52.426;17.100;2022-11-02T17:40:51;13.40;99.90
24091;DHT22;12272;52.426;17.100;2022-11-02T17:50:58;15.60;99.90
24091;DHT22;12272;52.426;17.100;2022-11-02T17:56:01;17.40;99.90
24091;DHT22;12272;52.426;17.100;2022-11-02T18:01:04;17.40;99.90
24091;DHT22;12272;52.426;17.100;2022-11-02T18:06:07;16.80;99.90
24091;DHT22;12272;52.426;17.100;2022-11-02T18:11:09;15.60;99.90
24091;DHT22;12272;52.426;17.100;2022-11-02T18:16:12;14.30;99.90
24091;DHT22;12272;52.426;17.100;2022-11-02T18:21:14;14.40;99.90
24091;DHT22;12272;52.426;17.100;2022-11-02T18:26:17;16.50;99.90
24091;DHT22;12272;52.426;17.100;2022-11-02T18:31:19;14.90;99.90
24091;DHT22;12272;52.426;17.100;2022-11-02T18:36:22;14.20;99.90
24091;DHT22;12272;52.426;17.100;2022-11-02T18:41:24;12.30;99.90
24091;DHT22;12272;52.426;17.100;2022-11-02T18:46:33;11.90;99.90
24091;DHT22;12272;52.426;17.100;2022-11-02T18:51:35;11.50;99.90
24091;DHT22;12272;52.426;17.100;2022-11-02T18:56:56;11.80;99.90
24091;DHT22;12272;52.426;17.100;2022-11-02T19:01:58;13.00;99.90
24091;DHT22;12272;52.426;17.100;2022-11-02T19:07:01;11.70;99.90
24091;DHT22;12272;52.426;17.100;2022-11-02T19:12:26;11.40;99.90
24091;DHT22;12272;52.426;17.100;2022-11-02T19:17:29;10.60;99.90
24091;DHT22;12272;52.426;17.100;2022-11-02T19:22:31;10.30;99.90
24091;DHT22;12272;52.426;17.100;2022-11-02T19:32:37;9.50;99.90
24091;DHT22;12272;52.426;17.100;2022-11-02T19:37:39;9.50;99.90
24091;DHT22;12272;52.426;17.100;2022-11-02T19:42:42;9.50;99.90
24091;DHT22;12272;52.426;17.100;2022-11-02T19:47:44;9.50;99.90
24091;DHT22;12272;52.426;17.100;2022-11-02T19:52:47;9.40;99.90
24091;DHT22;12272;52.426;17.100;2022-11-02T19:57:53;11.60;99.90
24091;DHT22;12272;52.426;17.100;2022-11-02T20:02:56;10.40;99.90
24091;DHT22;12272;52.426;17.100;2022-11-02T20:07:58;10.80;99.90
24091;DHT22;12272;52.426;17.100;2022-11-02T20:13:01;10.30;99.90
24091;DHT22;12272;52.426;17.100;2022-11-02T20:18:05;9.90;99.90
24091;DHT22;12272;52.426;17.100;2022-11-02T20:23:20;9.70;99.90
24091;DHT22;12272;52.426;17.100;2022-11-02T20:28:23;9.20;99.90
24091;DHT22;12272;52.426;17.100;2022-11-02T20:33:25;9.00;99.90
24091;DHT22;12272;52.426;17.100;2022-11-02T20:38:28;8.80;99.90
24091;DHT22;12272;52.426;17.100;2022-11-02T20:43:31;8.70;99.90
24091;DHT22;12272;52.426;17.100;2022-11-02T20:53:37;7.80;99.90
24091;DHT22;12272;52.426;17.100;2022-11-02T20:58:39;7.40;99.90
24091;DHT22;12272;52.426;17.100;2022-11-02T21:03:42;7.30;99.90
24091;DHT22;12272;52.426;17.100;2022-11-02T21:08:44;7.20;99.90
24091;DHT22;12272;52.426;17.100;2022-11-02T21:13:47;7.10;99.90
24091;DHT22;12272;52.426;17.100;2022-11-02T21:18:54;7.00;99.90
24091;DHT22;12272;52.426;17.100;2022-11-02T21:23:56;7.00;99.90
24091;DHT22;12272;52.426;17.100;2022-11-02T21:28:59;7.10;99.90
24091;DHT22;12272;52.426;17.100;2022-11-02T21:34:03;7.20;99.90
24091;DHT22;12272;52.426;17.100;2022-11-02T21:39:06;7.50;99.90
24091;DHT22;12272;52.426;17.100;2022-11-02T21:44:08;7.50;99.90
24091;DHT22;12272;52.426;17.100;2022-11-02T21:49:12;7.50;99.90
24091;DHT22;12272;52.426;17.100;2022-11-02T21:54:15;7.40;99.90
24091;DHT22;12272;52.426;17.100;2022-11-02T21:59:17;7.40;99.90
24091;DHT22;12272;52.426;17.100;2022-11-02T22:04:24;7.30;99.90
24091;DHT22;12272;52.426;17.100;2022-11-02T22:09:30;7.10;99.90
24091;DHT22;12272;52.426;17.100;2022-11-02T22:14:32;7.00;99.90
24091;DHT22;12272;52.426;17.100;2022-11-02T22:19:35;7.10;99.90
24091;DHT22;12272;52.426;17.100;2022-11-02T22:24:37;7.10;99.90
24091;DHT22;12272;52.426;17.100;2022-11-02T22:29:48;6.90;99.90
24091;DHT22;12272;52.426;17.100;2022-11-02T22:34:50;6.60;99.90
24091;DHT22;12272;52.426;17.100;2022-11-02T22:39:53;6.60;99.90
24091;DHT22;12272;52.426;17.100;2022-11-02T22:44:55;6.30;99.90
24091;DHT22;12272;52.426;17.100;2022-11-02T22:49:59;6.20;99.90
24091;DHT22;12272;52.426;17.100;2022-11-02T22:55:02;6.00;99.90
24091;DHT22;12272;52.426;17.100;2022-11-02T23:00:05;5.90;99.90
24091;DHT22;12272;52.426;17.100;2022-11-02T23:05:08;5.70;99.90
24091;DHT22;12272;52.426;17.100;2022-11-02T23:10:11;5.40;99.90
24091;DHT22;12272;52.426;17.100;2022-11-02T23:15:33;5.40;99.90
24091;DHT22;12272;52.426;17.100;2022-11-02T23:20:35;5.30;99.90
24091;DHT22;12272;52.426;17.100;2022-11-02T23:30:41;5.10;99.90
24091;DHT22;12272;52.426;17.100;2022-11-02T23:36:03;5.10;99.90
24091;DHT22;12272;52.426;17.100;2022-11-02T23:41:12;5.00;99.90
24091;DHT22;12272;52.426;17.100;2022-11-02T23:46:15;4.70;99.90
24091;DHT22;12272;52.426;17.100;2022-11-02T23:51:18;4.60;99.90
24091;DHT22;12272;52.426;17.100;2022-11-02T23:56:39;4.60;99.90
